Aviation Digital Data Service (ADDS)

Output produced by TAFs form (1120 UTC 24 April 2017)
found at http://www.aviationweather.gov/adds/tafs/
 
METAR text: RJBD 241000Z 12004KT 080V180 9999 FEW035 SCT/// 16/09 Q1024
Conditions at: RJBD (NANKISHIRAHAMA A, JP) observed 1000 UTC 24 April 2017
Temperature: 16.0°C (61°F)
Dewpoint: 9.0°C (48°F) [RH = 63%]
Pressure (altimeter): 30.24 inches Hg (1024.0 mb)
Winds: from the ESE (120 degrees) at 5 MPH (4 knots; 2.1 m/s)
Visibility: 6 or more miles (10+ km)
Ceiling: at least 12,000 feet AGL
Clouds: few clouds at 3500 feet AGL
Weather: no significant weather observed at this time